Time;durP1;ratioP1;P1;durP2;ratioP2;P2;SDS_P1;SDS_P2;PMS_P1;PMS_P2;Temp;Humidity;BMP_temperature;BMP_pressure;BME280_temperature;BME280_humidity;BME280_pressure;Samples;Min_cycle;Max_cycle;Signal;HPM_P1;HPM_P2
2023/06/09 00:01:53;;;;;;;22.98;10.52;;;;;;;29.34;64.89;100719.31;5106777;27;65113;-44
2023/06/09 00:04:26;;;;;;;27.20;11.15;;;;;;;29.49;65.51;100748.75;5108202;27;69983;-45
2023/06/09 00:06:58;;;;;;;21.83;9.77;;;;;;;29.48;65.83;100736.28;5104707;27;65413;-44
2023/06/09 00:09:32;;;;;;;13.93;9.50;;;;;;;29.61;66.71;100755.13;5103031;27;69536;-45
2023/06/09 00:12:04;;;;;;;21.58;9.52;;;;;;;29.45;66.95;100731.28;5108621;27;66071;-44
2023/06/09 00:14:36;;;;;;;31.83;10.40;;;;;;;29.67;68.00;100759.72;5107413;27;70074;-43
2023/06/09 00:17:09;;;;;;;19.10;10.02;;;;;;;29.58;67.31;100736.66;5108164;27;66333;-43
2023/06/09 00:19:41;;;;;;;23.67;9.07;;;;;;;29.61;68.11;100755.13;5112722;27;69722;-44
2023/06/09 00:22:15;;;;;;;31.08;12.43;;;;;;;29.51;69.47;100730.44;5115592;27;65776;-44
2023/06/09 00:24:47;;;;;;;40.47;19.52;;;;;;;29.73;69.64;100755.34;5113446;27;69878;-44
2023/06/09 00:27:19;;;;;;;39.30;21.08;;;;;;;29.70;70.24;100764.72;5113695;27;64817;-45
2023/06/09 00:29:50;;;;;;;;;;;;;;;29.62;71.15;100759.50;5122135;27;69883;-45
2023/06/09 00:32:21;;;;;;;42.53;22.67;;;;;;;29.84;71.06;100762.75;5107812;27;66829;-45
2023/06/09 00:34:53;;;;;;;45.57;22.73;;;;;;;29.84;71.53;100762.75;5110395;27;70087;-45
2023/06/09 00:37:24;;;;;;;41.63;23.73;;;;;;;29.81;71.67;100742.41;5113939;27;66019;-44
2023/06/09 00:39:57;;;;;;;21.27;17.10;;;;;;;29.77;68.68;100743.84;5111379;27;70034;-44
2023/06/09 00:42:30;;;;;;;26.88;16.10;;;;;;;29.96;68.17;100765.59;5101688;27;66045;-45
2023/06/09 00:45:02;;;;;;;25.88;16.27;;;;;;;29.97;68.51;100772.66;5103475;27;69504;-45
2023/06/09 00:47:34;;;;;;;24.58;15.18;;;;;;;30.03;68.19;100777.19;5102499;27;66304;-45
2023/06/09 00:50:06;;;;;;;20.00;14.93;;;;;;;30.04;68.20;100778.88;5109311;27;69630;-44
2023/06/09 00:52:38;;;;;;;24.92;14.55;;;;;;;30.09;67.69;100780.91;5113728;27;66746;-45
2023/06/09 00:55:12;;;;;;;26.13;15.00;;;;;;;29.35;68.27;100656.94;5117294;27;70339;-44
2023/06/09 00:57:55;;;;;;;15.77;14.07;;;;;;;29.97;68.17;100756.44;5112471;27;66559;-45
2023/06/09 01:00:28;;;;;;;18.17;14.93;;;;;;;30.03;68.24;100767.22;5121669;27;70232;-46
2023/06/09 01:03:00;;;;;;;22.23;15.55;;;;;;;30.19;68.19;100795.63;5119208;27;65734;-44
2023/06/09 01:05:38;;;;;;;20.33;14.32;;;;;;;29.70;67.81;100701.66;5110116;27;69712;-45
2023/06/09 01:08:16;;;;;;;16.05;13.82;;;;;;;30.23;67.75;100794.19;5098544;27;66371;-44
2023/06/09 01:11:26;;;;;;;19.65;14.70;;;;;;;30.22;68.63;100787.09;5110542;27;70038;-45
2023/06/09 01:14:45;;;;;;;15.75;13.90;;;;;;;30.11;68.78;100790.47;5088457;27;66145;-44
2023/06/09 01:17:19;;;;;;;17.30;13.30;;;;;;;30.00;68.15;100746.00;5081882;27;70040;-45
2023/06/09 01:20:04;;;;;;;14.75;12.50;;;;;;;29.30;68.25;100637.81;5108143;27;65360;-44
2023/06/09 01:23:06;;;;;;;16.17;13.15;;;;;;;30.24;69.63;100792.31;5105938;27;70963;-45
2023/06/09 01:25:42;;;;;;;17.03;12.97;;;;;;;29.46;68.50;100660.00;5104711;27;65371;-45
2023/06/09 01:28:20;;;;;;;13.80;12.40;;;;;;;29.68;68.18;100682.97;5116208;27;69853;-45
2023/06/09 01:30:52;;;;;;;15.38;12.65;;;;;;;30.30;68.97;100796.00;5114970;27;66411;-45
2023/06/09 01:33:27;;;;;;;13.27;11.98;;;;;;;30.16;68.68;100782.53;5104847;27;68703;-46
2023/06/09 01:35:59;;;;;;;14.13;12.55;;;;;;;30.38;69.25;100809.28;5104858;27;66615;-45
2023/06/09 01:38:31;;;;;;;18.05;12.88;;;;;;;30.41;68.53;100811.56;5104114;27;69668;-44
2023/06/09 01:41:03;;;;;;;15.57;12.52;;;;;;;30.17;69.06;100773.41;5108883;27;66393;-44
2023/06/09 01:43:35;;;;;;;13.43;11.30;;;;;;;30.23;68.46;100783.38;5104636;27;70053;-46
2023/06/09 01:46:06;;;;;;;12.05;10.93;;;;;;;30.36;68.48;100809.50;5105995;27;66058;-45
2023/06/09 01:48:57;;;;;;;14.10;11.60;;;;;;;30.45;68.54;100815.47;5107666;27;70205;-45
2023/06/09 01:51:53;;;;;;;12.13;10.93;;;;;;;30.34;69.05;100822.44;5106580;27;66659;-45
2023/06/09 01:54:48;;;;;;;11.63;10.48;;;;;;;29.66;68.37;100695.88;5079602;27;69978;-46
2023/06/09 01:57:26;;;;;;;10.45;9.52;;;;;;;30.32;68.95;100805.56;5111139;27;65891;-47
2023/06/09 02:00:05;;;;;;;11.80;10.45;;;;;;;30.47;68.38;100849.38;5105695;27;70712;-45
2023/06/09 02:02:49;;;;;;;10.85;9.85;;;;;;;29.65;68.41;100699.63;5106224;27;65554;-45
2023/06/09 02:05:22;;;;;;;10.77;9.80;;;;;;;29.12;68.63;100621.50;5105312;27;69886;-46
2023/06/09 02:07:54;;;;;;;11.02;9.93;;;;;;;30.25;68.41;100800.19;5109881;27;66055;-45
2023/06/09 02:10:26;;;;;;;10.52;9.57;;;;;;;30.55;68.20;100839.34;5115878;27;69534;-45
2023/06/09 02:12:58;;;;;;;9.48;8.57;;;;;;;30.55;68.46;100832.06;5109247;27;67085;-45
2023/06/09 02:15:29;;;;;;;;;;;;;;;30.26;69.55;100842.44;5106974;27;70057;-45
2023/06/09 02:18:01;;;;;;;9.77;9.07;;;;;;;30.26;68.54;100791.03;5111938;27;65348;-47
2023/06/09 02:20:34;;;;;;;10.27;9.48;;;;;;;30.49;68.45;100819.41;5090734;27;70679;-45
2023/06/09 02:23:06;;;;;;;15.32;9.23;;;;;;;30.51;67.85;100822.72;5108877;27;65210;-45
2023/06/09 02:25:37;;;;;;;10.00;9.07;;;;;;;30.60;67.71;100837.66;5108317;27;69168;-46
2023/06/09 02:28:09;;;;;;;9.20;8.43;;;;;;;30.62;67.91;100826.59;5113834;27;66619;-45
2023/06/09 02:30:40;;;;;;;9.30;8.60;;;;;;;30.40;67.70;100780.13;5117457;27;69838;-45
2023/06/09 02:33:14;;;;;;;9.90;8.93;;;;;;;30.66;67.76;100814.28;5108128;27;66673;-45
2023/06/09 02:35:46;;;;;;;10.75;8.90;;;;;;;30.15;68.13;100732.19;5109992;27;70275;-45
2023/06/09 02:38:17;;;;;;;9.13;8.38;;;;;;;30.69;67.68;100817.38;5119309;27;65462;-45
2023/06/09 02:40:50;;;;;;;8.65;7.90;;;;;;;30.57;68.14;100778.53;5115873;27;69633;-45
2023/06/09 02:43:21;;;;;;;8.35;7.55;;;;;;;30.74;67.43;100811.31;5113617;27;66358;-46
2023/06/09 02:45:55;;;;;;;9.65;8.85;;;;;;;30.76;67.78;100805.66;5106545;27;69929;-44
2023/06/09 02:48:27;;;;;;;9.27;8.32;;;;;;;30.76;67.59;100797.53;5111953;27;66172;-44
2023/06/09 02:50:58;;;;;;;9.52;8.45;;;;;;;30.67;67.19;100784.28;5103047;27;70259;-45
2023/06/09 02:53:30;;;;;;;8.45;7.68;;;;;;;30.61;67.08;100763.50;5106139;27;66478;-44
2023/06/09 02:56:03;;;;;;;8.55;7.85;;;;;;;30.86;67.16;100798.72;5107681;27;70339;-45
2023/06/09 02:58:43;;;;;;;9.60;8.55;;;;;;;30.18;67.38;100677.66;5115061;27;65588;-45
2023/06/09 03:01:17;;;;;;;10.13;7.73;;;;;;;30.70;67.59;100764.03;5104946;27;70256;-45
2023/06/09 03:03:51;;;;;;;8.32;7.47;;;;;;;30.76;67.43;100755.06;5103297;27;66549;-44
2023/06/09 03:06:23;;;;;;;8.18;7.53;;;;;;;30.84;67.65;100753.94;5104935;27;70055;-44
2023/06/09 03:08:54;;;;;;;10.45;7.72;;;;;;;30.72;67.26;100741.09;5118030;27;65729;-44
2023/06/09 03:11:26;;;;;;;7.33;6.73;;;;;;;30.97;66.88;100775.50;5105574;27;69091;-44
2023/06/09 03:13:57;;;;;;;6.88;6.38;;;;;;;30.94;67.05;100762.41;5108895;27;65215;-45
2023/06/09 03:16:30;;;;;;;7.20;6.63;;;;;;;30.97;67.19;100761.94;5107132;27;69622;-44
2023/06/09 03:19:01;;;;;;;7.60;6.97;;;;;;;30.79;67.61;100721.28;5105174;27;66255;-44
2023/06/09 03:21:35;;;;;;;6.80;6.30;;;;;;;31.02;66.90;100756.69;5094592;27;69765;-46
2023/06/09 03:24:07;;;;;;;6.50;5.72;;;;;;;31.08;67.60;100763.91;5104808;27;65936;-45
2023/06/09 03:26:39;;;;;;;6.45;5.85;;;;;;;30.81;67.22;100716.47;5119284;27;69791;-44
2023/06/09 03:29:10;;;;;;;6.97;6.38;;;;;;;31.09;67.56;100760.16;5107680;27;66166;-44
2023/06/09 03:31:44;;;;;;;6.05;5.63;;;;;;;31.12;66.91;100765.13;5093717;27;70238;-44
2023/06/09 03:34:16;;;;;;;5.95;5.45;;;;;;;30.88;67.00;100719.97;5106591;27;66067;-48
2023/06/09 03:36:47;;;;;;;7.38;6.60;;;;;;;31.18;67.10;100760.69;5104411;27;70040;-46
2023/06/09 03:39:19;;;;;;;5.85;5.38;;;;;;;31.14;66.95;100741.34;5101424;27;66357;-45
2023/06/09 03:41:54;;;;;;;6.32;5.80;;;;;;;31.22;67.09;100747.53;5104204;27;69599;-44
2023/06/09 03:44:28;;;;;;;5.43;5.03;;;;;;;30.94;67.20;100702.81;5115895;27;65605;-45
2023/06/09 03:47:00;;;;;;;6.05;5.25;;;;;;;31.31;66.71;100757.00;5107615;27;69703;-45
2023/06/09 03:49:32;;;;;;;5.22;4.80;;;;;;;31.32;66.62;100750.53;5111889;27;66611;-46
2023/06/09 03:52:06;;;;;;;5.05;4.65;;;;;;;31.11;67.08;100701.16;5109239;27;70278;-44
2023/06/09 03:54:39;;;;;;;6.32;4.50;;;;;;;31.33;66.81;100733.22;5105290;27;66693;-50
2023/06/09 03:57:10;;;;;;;;;;;;;;;31.09;67.72;100741.22;5115059;27;70563;-46
2023/06/09 03:59:42;;;;;;;5.17;4.70;;;;;;;31.22;66.74;100715.81;5106755;27;66492;-45
2023/06/09 04:02:14;;;;;;;4.90;4.50;;;;;;;31.39;66.87;100733.16;5116524;27;69003;-46
2023/06/09 04:04:46;;;;;;;5.00;4.60;;;;;;;31.41;67.07;100729.41;5103481;27;66481;-45
2023/06/09 04:07:17;;;;;;;5.18;4.78;;;;;;;31.46;66.42;100738.50;5101573;27;70414;-46
2023/06/09 04:09:50;;;;;;;7.65;4.75;;;;;;;31.50;66.54;100731.56;5113910;27;65701;-47
2023/06/09 04:12:21;;;;;;;5.22;4.82;;;;;;;31.52;66.59;100732.16;5091000;27;69245;-48
2023/06/09 04:14:53;;;;;;;4.60;4.20;;;;;;;31.53;66.60;100725.69;5103447;27;65270;-46
2023/06/09 04:17:25;;;;;;;4.20;3.90;;;;;;;31.57;66.17;100720.66;5104113;27;70313;-46
2023/06/09 04:19:58;;;;;;;4.18;3.88;;;;;;;31.59;66.47;100716.66;5094192;27;66072;-46
2023/06/09 04:22:30;;;;;;;4.53;4.22;;;;;;;31.61;66.25;100709.09;5086464;27;69594;-45
2023/06/09 04:25:02;;;;;;;4.85;4.45;;;;;;;31.57;66.19;100702.50;5116007;27;65755;-46
2023/06/09 04:27:34;;;;;;;4.32;3.92;;;;;;;31.66;66.28;100721.16;5089483;27;69782;-46
2023/06/09 04:30:06;;;;;;;4.20;3.90;;;;;;;31.67;66.48;100714.66;5111712;27;66194;-47
2023/06/09 04:32:38;;;;;;;4.38;3.75;;;;;;;31.70;66.06;100708.78;5108413;27;69841;-46
2023/06/09 04:35:11;;;;;;;4.47;4.07;;;;;;;31.70;66.49;100703.34;5100877;27;65243;-46
2023/06/09 04:37:44;;;;;;;4.00;3.70;;;;;;;30.99;66.27;100586.50;5113745;27;69966;-46
2023/06/09 04:40:23;;;;;;;4.75;4.18;;;;;;;31.75;66.38;100709.75;5105995;27;65199;-47
2023/06/09 04:43:01;;;;;;;4.68;4.22;;;;;;;31.76;66.18;100699.72;5099741;27;69622;-46
2023/06/09 04:45:34;;;;;;;4.70;4.15;;;;;;;31.76;66.33;100702.41;5106903;27;66364;-46
2023/06/09 04:48:14;;;;;;;4.63;4.18;;;;;;;31.78;66.06;100690.28;5113452;27;70423;-48
2023/06/09 04:50:47;;;;;;;4.47;4.07;;;;;;;31.68;66.16;100671.06;5105511;27;66117;-44
2023/06/09 04:53:20;;;;;;;4.07;3.78;;;;;;;31.76;66.24;100669.88;5120513;27;69140;-48
2023/06/09 04:55:56;;;;;;;4.10;3.80;;;;;;;31.30;65.98;100592.75;5120463;27;65751;-45
2023/06/09 04:58:31;;;;;;;6.03;3.88;;;;;;;31.82;65.72;100674.41;5109756;27;70455;-46
2023/06/09 05:01:03;;;;;;;4.40;4.00;;;;;;;31.84;66.17;100669.56;5119449;27;65657;-46
2023/06/09 05:03:34;;;;;;;8.15;3.97;;;;;;;31.81;65.96;100651.03;5111212;27;69022;-47
2023/06/09 05:06:06;;;;;;;6.93;3.90;;;;;;;31.85;65.85;100644.09;5107937;27;66178;-50
2023/06/09 05:08:37;;;;;;;4.43;4.13;;;;;;;31.75;65.51;100622.13;5096306;27;69642;-46
2023/06/09 05:11:09;;;;;;;3.78;3.45;;;;;;;31.81;65.71;100632.03;5109724;27;65134;-45
2023/06/09 05:13:41;;;;;;;4.03;3.67;;;;;;;31.91;66.06;100648.63;5116333;27;70034;-45
2023/06/09 05:16:15;;;;;;;;;;;;;;;31.64;66.53;100636.50;5110616;27;65690;-48
2023/06/09 05:18:46;;;;;;;6.07;3.70;;;;;;;31.92;65.78;100644.00;5102133;27;70382;-45
2023/06/09 05:21:18;;;;;;;3.85;3.55;;;;;;;31.95;65.68;100622.66;5117079;27;66420;-45
2023/06/09 05:23:49;;;;;;;;;;;;;;;31.69;66.60;100625.78;5111797;27;70403;-47
2023/06/09 05:26:22;;;;;;;3.53;3.22;;;;;;;31.71;66.22;100578.41;5109023;27;66833;-45
2023/06/09 05:28:53;;;;;;;4.38;3.42;;;;;;;31.99;65.79;100613.00;5113607;27;68939;-45
2023/06/09 05:31:26;;;;;;;4.20;3.80;;;;;;;31.90;65.56;100575.56;5116546;27;65582;-48
2023/06/09 05:33:58;;;;;;;4.97;3.55;;;;;;;31.99;65.55;100585.06;5105531;27;69309;-45
2023/06/09 05:36:29;;;;;;;3.50;3.20;;;;;;;32.08;65.24;100596.38;5121587;27;66433;-45
2023/06/09 05:39:02;;;;;;;3.88;3.45;;;;;;;31.91;65.33;100553.69;5107142;27;69803;-46
2023/06/09 05:41:33;;;;;;;3.25;3.03;;;;;;;32.08;65.36;100588.25;5107234;27;66318;-46
2023/06/09 05:44:04;;;;;;;;;;;;;;;31.85;66.24;100581.72;5110062;27;70283;-45
2023/06/09 05:46:39;;;;;;;3.92;3.63;;;;;;;32.13;65.32;100585.66;5089406;27;65267;-45
2023/06/09 05:49:10;;;;;;;3.47;3.17;;;;;;;32.17;65.69;100589.53;5105526;27;70460;-44
2023/06/09 05:51:42;;;;;;;3.30;3.10;;;;;;;32.04;65.17;100567.00;5115468;27;65045;-50
2023/06/09 05:54:18;;;;;;;4.00;3.67;;;;;;;32.22;65.17;100592.38;5090489;27;69226;-46
2023/06/09 05:56:51;;;;;;;4.10;3.40;;;;;;;32.25;65.08;100586.47;5107209;27;66692;-44
2023/06/09 05:59:23;;;;;;;3.20;3.00;;;;;;;32.24;65.23;100582.13;5113176;27;70300;-44
2023/06/09 06:01:54;;;;;;;3.50;3.20;;;;;;;32.27;65.14;100582.47;5110396;27;66663;-45
2023/06/09 06:04:26;;;;;;;3.63;3.33;;;;;;;32.26;64.86;100571.81;5106283;27;70264;-46
2023/06/09 06:06:58;;;;;;;3.78;3.47;;;;;;;32.21;65.08;100566.31;5110042;27;66702;-46
2023/06/09 06:09:29;;;;;;;3.60;3.28;;;;;;;32.26;64.90;100574.53;5115875;27;71640;-45
2023/06/09 06:12:01;;;;;;;2.97;2.75;;;;;;;32.28;65.10;100572.41;5117587;27;66770;-45
2023/06/09 06:14:32;;;;;;;3.30;3.00;;;;;;;32.17;64.72;100554.25;5106428;27;70633;-45
2023/06/09 06:17:04;;;;;;;3.35;3.15;;;;;;;32.22;65.11;100551.66;5108213;27;65216;-45
2023/06/09 06:19:35;;;;;;;3.65;3.35;;;;;;;30.13;64.67;100204.09;5111394;27;69568;-45
2023/06/09 06:22:07;;;;;;;3.20;2.90;;;;;;;32.32;64.88;100554.63;5106315;27;66202;-44
2023/06/09 06:24:38;;;;;;;3.60;3.30;;;;;;;32.36;64.73;100557.66;5111625;27;70124;-47
2023/06/09 06:27:11;;;;;;;3.65;3.35;;;;;;;32.37;65.08;100560.13;5101714;27;66146;-45
2023/06/09 06:29:43;;;;;;;3.47;3.17;;;;;;;32.40;64.77;100564.25;5115326;27;70406;-45
2023/06/09 06:32:15;;;;;;;3.22;3.03;;;;;;;32.40;64.86;100566.97;5121963;27;65584;-45
2023/06/09 06:34:46;;;;;;;3.58;3.38;;;;;;;32.41;64.58;100564.03;5113922;27;69551;-46
2023/06/09 06:37:18;;;;;;;3.33;3.13;;;;;;;32.41;64.54;100560.50;5105537;27;65926;-45
2023/06/09 06:39:49;;;;;;;3.13;2.92;;;;;;;32.42;64.68;100559.44;5107119;27;70472;-45
2023/06/09 06:42:21;;;;;;;;;;;;;;;32.13;65.11;100551.19;5112000;27;67027;-45
2023/06/09 06:45:09;;;;;;;4.80;3.28;;;;;;;32.41;64.73;100544.22;5111955;27;70278;-46
2023/06/09 06:47:42;;;;;;;3.42;3.13;;;;;;;32.45;64.60;100537.22;5086778;27;65353;-46
2023/06/09 06:50:13;;;;;;;3.15;2.95;;;;;;;32.33;64.39;100506.56;5084141;27;68895;-46
2023/06/09 06:52:46;;;;;;;3.35;3.15;;;;;;;32.26;64.58;100493.97;5107903;27;66486;-44
2023/06/09 06:55:17;;;;;;;3.38;3.08;;;;;;;32.42;64.36;100511.38;5112616;27;69942;-45
2023/06/09 06:57:48;;;;;;;4.47;2.88;;;;;;;32.48;64.40;100520.47;5116067;27;67513;-46
2023/06/09 07:00:20;;;;;;;3.70;3.40;;;;;;;32.43;64.58;100510.34;5109225;27;69860;-44
2023/06/09 07:02:51;;;;;;;7.15;3.13;;;;;;;32.45;64.46;100505.47;5122955;27;66161;-45
2023/06/09 07:05:22;;;;;;;3.15;2.95;;;;;;;32.37;64.41;100484.13;5120657;27;70098;-44
2023/06/09 07:07:53;;;;;;;4.30;3.28;;;;;;;32.46;64.53;100488.16;5110739;27;66173;-46
2023/06/09 07:10:25;;;;;;;6.15;3.50;;;;;;;32.30;64.58;100456.31;5112679;27;70235;-44
2023/06/09 07:12:56;;;;;;;3.80;3.50;;;;;;;32.48;64.51;100474.34;5104624;27;65650;-46
2023/06/09 07:15:28;;;;;;;3.58;3.17;;;;;;;32.56;64.64;100484.81;5111914;27;70995;-46
2023/06/09 07:17:59;;;;;;;3.50;3.20;;;;;;;32.55;64.46;100474.22;5110222;27;66354;-45
2023/06/09 07:20:30;;;;;;;;;;;;;;;32.32;65.65;100480.47;5105136;27;69838;-43
2023/06/09 07:23:02;;;;;;;6.43;3.60;;;;;;;32.59;64.75;100475.38;5112270;27;67186;-45
2023/06/09 07:25:35;;;;;;;3.45;3.03;;;;;;;32.63;64.51;100460.25;5113897;27;69332;-44
2023/06/09 07:28:07;;;;;;;4.40;3.50;;;;;;;32.61;64.50;100462.38;5111404;27;64690;-43
2023/06/09 07:30:42;;;;;;;2.83;2.63;;;;;;;32.63;64.46;100471.13;5113620;27;69436;-43
2023/06/09 07:33:16;;;;;;;2.97;2.72;;;;;;;32.67;64.18;100464.13;5104802;27;66899;-44
2023/06/09 07:35:49;;;;;;;4.07;3.00;;;;;;;32.54;64.39;100446.25;5103649;27;69371;-46
2023/06/09 07:38:21;;;;;;;4.20;2.85;;;;;;;32.50;64.42;100442.34;5107399;27;65486;-46
2023/06/09 07:40:52;;;;;;;3.25;3.00;;;;;;;32.60;64.15;100458.84;5108436;27;70319;-44
2023/06/09 07:43:25;;;;;;;3.00;2.70;;;;;;;32.68;64.02;100469.31;5109326;27;66094;-44
2023/06/09 07:45:57;;;;;;;3.05;2.78;;;;;;;32.70;64.08;100469.88;5103952;27;69892;-45
2023/06/09 07:48:29;;;;;;;3.25;2.35;;;;;;;32.70;64.13;100471.78;5107963;27;65966;-45
2023/06/09 07:51:03;;;;;;;2.63;2.42;;;;;;;32.72;63.98;100472.38;5100525;27;70190;-45
2023/06/09 07:53:35;;;;;;;2.88;2.67;;;;;;;32.73;64.26;100476.72;5109177;27;66307;-46
2023/06/09 07:56:07;;;;;;;2.70;2.50;;;;;;;32.63;63.92;100460.25;5113218;27;70795;-45
2023/06/09 07:58:38;;;;;;;2.60;2.40;;;;;;;32.71;63.97;100468.00;5116221;27;66368;-44
2023/06/09 08:01:10;;;;;;;3.35;3.05;;;;;;;32.69;63.94;100451.13;5107536;27;70205;-46
2023/06/09 08:03:41;;;;;;;2.87;2.67;;;;;;;32.71;64.06;100451.72;5108230;27;66223;-45
2023/06/09 08:06:12;;;;;;;2.50;2.20;;;;;;;32.66;63.83;100440.75;5106287;27;69655;-45
2023/06/09 08:08:44;;;;;;;2.58;2.38;;;;;;;32.45;63.87;100415.88;5113238;27;66223;-45
2023/06/09 08:11:16;;;;;;;2.60;2.40;;;;;;;32.78;64.14;100451.56;5109447;27;70396;-45
2023/06/09 08:13:47;;;;;;;;;;;;;;;32.49;64.48;100460.53;5108582;27;64986;-45
2023/06/09 08:16:18;;;;;;;2.80;2.60;;;;;;;32.74;63.96;100448.50;5105153;27;69521;-45
2023/06/09 08:18:49;;;;;;;3.10;2.80;;;;;;;32.70;63.74;100440.00;5111338;27;66143;-45
2023/06/09 08:21:22;;;;;;;2.63;2.33;;;;;;;32.72;63.86;100437.06;5111065;27;70125;-45
2023/06/09 08:23:53;;;;;;;5.82;3.08;;;;;;;32.82;63.79;100464.41;5105412;27;66557;-44
2023/06/09 08:26:24;;;;;;;3.00;2.67;;;;;;;32.82;63.73;100453.56;5106066;27;69823;-45
2023/06/09 08:28:56;;;;;;;3.33;2.38;;;;;;;32.78;63.62;100444.22;5109104;27;65851;-44
2023/06/09 08:31:28;;;;;;;2.83;2.63;;;;;;;32.53;63.65;100411.16;5111592;27;69958;-45
2023/06/09 08:34:00;;;;;;;2.90;2.63;;;;;;;32.83;63.63;100447.03;5111441;27;66178;-44
2023/06/09 08:36:31;;;;;;;3.05;2.33;;;;;;;32.86;63.57;100446.56;5114653;27;69842;-45
2023/06/09 08:39:03;;;;;;;2.70;2.50;;;;;;;32.83;63.55;100441.59;5114545;27;65322;-45
2023/06/09 08:41:39;;;;;;;2.90;2.47;;;;;;;32.86;63.65;100456.59;5107292;27;68677;-44
2023/06/09 08:44:11;;;;;;;2.97;2.67;;;;;;;32.82;63.35;100439.97;5106967;27;65695;-44
2023/06/09 08:46:46;;;;;;;2.63;2.30;;;;;;;32.83;63.86;100460.63;5111097;27;69936;-45
2023/06/09 08:49:17;;;;;;;2.70;2.50;;;;;;;32.87;63.60;100450.09;5105776;27;66415;-45
2023/06/09 08:51:49;;;;;;;2.75;2.55;;;;;;;32.86;63.73;100451.97;5105798;27;69822;-45
2023/06/09 08:54:21;;;;;;;5.05;2.25;;;;;;;32.80;63.51;100444.81;5111427;27;66599;-44
2023/06/09 08:56:52;;;;;;;2.85;2.53;;;;;;;32.88;63.18;100462.63;5110592;27;70127;-45
2023/06/09 08:59:23;;;;;;;;;;;;;;;32.58;64.09;100452.00;5106578;27;65843;-45
2023/06/09 09:01:55;;;;;;;3.40;2.50;;;;;;;32.84;63.60;100451.38;5108605;27;69798;-45
2023/06/09 09:04:27;;;;;;;2.63;2.42;;;;;;;32.85;63.48;100463.09;5103201;27;66161;-45
2023/06/09 09:06:58;;;;;;;3.05;2.70;;;;;;;32.86;63.67;100468.28;5121271;27;70098;-45
2023/06/09 09:09:30;;;;;;;3.10;2.83;;;;;;;32.87;63.47;100463.66;5107460;27;65509;-45
2023/06/09 09:12:05;;;;;;;2.90;2.70;;;;;;;32.87;63.28;100456.34;5105856;27;69882;-45
2023/06/09 09:14:41;;;;;;;4.28;2.38;;;;;;;32.88;63.18;100468.06;5118181;27;65974;-44
2023/06/09 09:17:13;;;;;;;3.40;2.55;;;;;;;32.90;63.38;100460.47;5115659;27;69512;-46
2023/06/09 09:19:51;;;;;;;2.65;2.45;;;;;;;32.86;63.36;100446.56;5113797;27;67148;-45
2023/06/09 09:22:22;;;;;;;2.60;2.40;;;;;;;32.79;63.50;100428.75;5108371;27;69791;-45
2023/06/09 09:24:54;;;;;;;2.03;1.92;;;;;;;32.88;63.44;100447.13;5116756;27;66694;-45
2023/06/09 09:27:27;;;;;;;2.90;2.70;;;;;;;32.74;63.31;100428.69;5115727;27;70131;-45
2023/06/09 09:29:58;;;;;;;3.08;2.78;;;;;;;32.86;63.52;100451.97;5104626;27;65510;-46
2023/06/09 09:32:30;;;;;;;2.30;2.10;;;;;;;32.64;63.13;100423.88;5103864;27;70086;-46
2023/06/09 09:35:02;;;;;;;2.33;2.13;;;;;;;32.89;63.20;100464.25;5118450;27;66037;-46
2023/06/09 09:37:34;;;;;;;2.97;2.50;;;;;;;32.82;63.25;100453.56;5117768;27;70172;-45
2023/06/09 09:40:06;;;;;;;4.60;2.40;;;;;;;32.86;63.07;100453.88;5116526;27;66137;-48
2023/06/09 09:42:40;;;;;;;2.90;2.70;;;;;;;32.64;63.20;100429.31;5110025;27;69628;-45
2023/06/09 09:45:12;;;;;;;4.07;2.47;;;;;;;32.90;63.01;100471.31;5108816;27;66510;-44
2023/06/09 09:47:44;;;;;;;3.88;2.63;;;;;;;32.88;63.17;100468.88;5101070;27;70050;-45
2023/06/09 09:50:23;;;;;;;;;;;;;;;32.60;63.95;100477.03;5107855;27;66737;-44
2023/06/09 09:52:55;;;;;;;3.45;2.72;;;;;;;32.85;63.37;100472.06;5116286;27;71045;-45
2023/06/09 09:55:26;;;;;;;3.30;2.58;;;;;;;32.87;63.20;100472.63;5097929;27;65935;-45
2023/06/09 09:58:01;;;;;;;1.77;1.65;;;;;;;32.86;62.91;100471.00;5113273;27;70191;-45
2023/06/09 10:00:35;;;;;;;2.97;2.65;;;;;;;31.92;62.96;100316.63;5114611;27;66269;-46
2023/06/09 10:03:15;;;;;;;4.55;2.80;;;;;;;32.86;62.99;100465.56;5115472;27;69880;-46
2023/06/09 10:05:59;;;;;;;3.08;2.85;;;;;;;32.82;63.25;100466.28;5103102;27;66111;-45
2023/06/09 10:08:32;;;;;;;5.22;2.72;;;;;;;32.54;63.49;100429.09;5106158;27;69697;-46
2023/06/09 10:11:04;;;;;;;3.00;2.50;;;;;;;32.82;63.07;100469.84;5120349;27;66627;-45
2023/06/09 10:13:35;;;;;;;;;;;;;;;32.54;64.06;100480.69;5107454;27;69210;-45
2023/06/09 10:16:09;;;;;;;2.72;2.53;;;;;;;32.79;63.38;100492.06;5105016;27;66696;-44
2023/06/09 10:18:42;;;;;;;3.17;2.72;;;;;;;32.76;63.41;100481.66;5106652;27;69753;-45
2023/06/09 10:21:14;;;;;;;3.38;3.13;;;;;;;32.75;63.29;100473.78;5105552;27;66085;-45
2023/06/09 10:23:47;;;;;;;3.38;3.08;;;;;;;32.81;63.34;100479.03;5104666;27;70828;-44
2023/06/09 10:26:18;;;;;;;3.30;3.10;;;;;;;32.76;63.26;100476.22;5106424;27;65765;-46
2023/06/09 10:28:50;;;;;;;3.30;3.00;;;;;;;32.77;63.42;100483.34;5102841;27;70111;-46
2023/06/09 10:31:22;;;;;;;;;;;;;;;32.48;64.23;100483.31;5102054;27;66064;-46
2023/06/09 10:33:54;;;;;;;3.58;3.28;;;;;;;32.71;63.49;100479.69;5103313;27;69858;-46
2023/06/09 10:36:25;;;;;;;;;;;;;;;32.43;64.19;100476.91;5105866;27;64898;-45
2023/06/09 10:38:56;;;;;;;3.75;3.50;;;;;;;32.57;63.79;100455.75;5100202;27;72111;-45
2023/06/09 10:41:37;;;;;;;4.43;3.17;;;;;;;32.58;63.41;100479.97;5112288;27;66590;-45
2023/06/09 10:44:23;;;;;;;4.93;3.20;;;;;;;32.71;63.35;100476.16;5108061;27;70216;-45
2023/06/09 10:46:58;;;;;;;3.63;3.33;;;;;;;32.67;64.18;100472.25;5104954;27;65239;-53
2023/06/09 10:49:39;;;;;;;6.00;3.67;;;;;;;32.71;63.92;100487.03;5108807;27;70578;-45
2023/06/09 10:52:36;;;;;;;3.60;3.30;;;;;;;32.47;64.68;100467.25;5107362;27;65353;-46
2023/06/09 10:55:15;;;;;;;3.28;3.08;;;;;;;32.68;64.53;100491.03;5109610;27;70506;-46
2023/06/09 10:57:47;;;;;;;3.60;3.30;;;;;;;32.70;64.64;100498.94;5100792;27;66736;-45
2023/06/09 11:00:19;;;;;;;3.92;3.63;;;;;;;32.69;64.72;100500.00;5107063;27;69895;-45
2023/06/09 11:03:11;;;;;;;4.13;3.72;;;;;;;32.62;65.61;100512.91;5106346;27;66573;-45
2023/06/09 11:05:45;;;;;;;8.65;5.40;;;;;;;32.59;67.69;100508.75;5106640;27;70045;-44
2023/06/09 11:08:16;;;;;;;7.68;6.55;;;;;;;31.86;68.99;100400.81;5101964;27;66506;-44
2023/06/09 11:10:47;;;;;;;6.03;5.63;;;;;;;32.44;69.94;100511.97;5100280;27;70121;-45
2023/06/09 11:13:51;;;;;;;12.98;6.22;;;;;;;32.28;70.64;100508.09;5110429;27;66393;-45
2023/06/09 11:16:22;;;;;;;13.85;6.32;;;;;;;32.36;70.72;100520.50;5080244;27;70179;-44
2023/06/09 11:19:21;;;;;;;7.00;5.90;;;;;;;32.27;71.01;100521.94;5105348;27;65196;-45
2023/06/09 11:22:05;;;;;;;7.37;6.37;;;;;;;32.16;71.01;100510.03;5118756;27;69736;-47
2023/06/09 11:24:50;;;;;;;8.63;5.80;;;;;;;32.28;70.34;100529.81;5109032;27;65238;-47
2023/06/09 11:27:23;;;;;;;5.63;5.13;;;;;;;31.78;68.96;100431.81;5102195;27;69849;-45
2023/06/09 11:30:08;;;;;;;6.65;5.72;;;;;;;32.41;69.35;100539.59;5109222;27;66692;-45
2023/06/09 11:32:56;;;;;;;5.90;5.50;;;;;;;31.68;68.99;100418.03;5110671;27;69448;-46
2023/06/09 11:38:05;;;;;;;7.13;5.97;;;;;;;32.56;68.06;100568.16;5107402;27;70234;-45
2023/06/09 11:40:56;;;;;;;6.35;5.85;;;;;;;32.46;68.52;100552.50;5104409;27;66470;-47
2023/06/09 11:43:28;;;;;;;7.17;6.40;;;;;;;32.55;68.20;100542.09;5104248;27;70278;-45
2023/06/09 11:46:03;;;;;;;6.50;5.87;;;;;;;32.42;68.43;100524.13;5107226;27;66700;-47
2023/06/09 11:48:34;;;;;;;6.38;5.80;;;;;;;32.45;68.08;100524.47;5102117;27;70374;-46
2023/06/09 11:51:06;;;;;;;6.93;5.70;;;;;;;32.58;68.00;100545.16;5108845;27;66268;-45
2023/06/09 11:53:38;;;;;;;6.80;6.25;;;;;;;32.50;68.00;100531.94;5106560;27;70209;-47
2023/06/09 11:56:10;;;;;;;7.05;5.70;;;;;;;32.50;68.13;100526.50;5104934;27;65985;-47
2023/06/09 11:58:42;;;;;;;9.02;6.05;;;;;;;32.22;67.74;100487.34;5104051;27;69180;-45
2023/06/09 12:01:15;;;;;;;6.70;5.75;;;;;;;32.61;67.94;100546.56;5105589;27;65161;-46